Time;durP1;ratioP1;P1;durP2;ratioP2;P2;SDS_P1;SDS_P2;PMS_P1;PMS_P2;Temp;Humidity;BMP_temperature;BMP_pressure;BME280_temperature;BME280_humidity;BME280_pressure;Samples;Min_cycle;Max_cycle;Signal;HPM_P1;HPM_P2
2022/05/22 00:00:25;;;;;;;;;10.00;10.00;29.00;30.70;;;;;;4976306;28;8793;-78
2022/05/22 00:02:53;;;;;;;;;8.00;8.00;29.10;30.60;;;;;;4970828;28;8790;-78
2022/05/22 00:05:21;;;;;;;;;8.67;8.67;29.10;31.00;;;;;;4961703;28;8815;-79
2022/05/22 00:07:47;;;;;;;;;10.67;10.67;29.00;31.20;;;;;;4963379;28;11507;-77
2022/05/22 00:10:13;;;;;;;;;8.67;8.67;29.00;30.70;;;;;;4961972;28;8890;-79
2022/05/22 00:12:40;;;;;;;;;11.00;11.00;29.00;30.70;;;;;;4956672;28;11492;-78
2022/05/22 00:15:07;;;;;;;;;8.00;8.00;29.00;31.10;;;;;;4956839;28;11605;-79
2022/05/22 00:17:33;;;;;;;;;9.00;9.00;29.00;30.90;;;;;;4968416;28;11629;-78
2022/05/22 00:19:58;;;;;;;;;9.33;9.33;29.10;31.00;;;;;;4960726;28;11632;-78
2022/05/22 00:22:24;;;;;;;;;13.00;13.00;29.00;31.00;;;;;;4956363;28;8780;-77
2022/05/22 00:24:50;;;;;;;;;11.33;11.33;28.90;30.60;;;;;;4956577;28;8891;-77
2022/05/22 00:27:16;;;;;;;;;10.67;10.67;28.90;30.70;;;;;;4958235;28;8789;-79
2022/05/22 00:29:41;;;;;;;;;11.00;11.00;28.70;30.70;;;;;;4962907;28;8816;-78
2022/05/22 00:32:08;;;;;;;;;11.00;11.00;28.80;31.00;;;;;;4968141;28;8805;-77
2022/05/22 00:34:35;;;;;;;;;9.00;9.00;28.90;31.10;;;;;;4975605;28;8813;-79
2022/05/22 00:37:01;;;;;;;;;10.67;10.67;28.80;31.80;;;;;;4973363;28;11565;-81
2022/05/22 00:39:27;;;;;;;;;10.00;10.00;28.80;32.40;;;;;;4956503;28;8804;-80
2022/05/22 00:41:55;;;;;;;;;9.33;9.33;28.80;32.80;;;;;;4956196;28;8781;-80
2022/05/22 00:44:21;;;;;;;;;10.00;10.00;28.90;32.90;;;;;;4956447;28;9478;-79
2022/05/22 00:46:49;;;;;;;;;9.33;9.33;28.90;33.90;;;;;;4958740;28;11582;-79
2022/05/22 00:49:21;;;;;;;;;10.67;10.67;28.80;35.10;;;;;;4975234;28;8808;-79
2022/05/22 00:52:06;;;;;;;;;10.33;10.33;28.80;37.10;;;;;;4959919;28;11566;-78
2022/05/22 00:54:50;;;;;;;;;10.33;10.33;28.60;36.20;;;;;;4959835;28;11537;-77
2022/05/22 00:57:26;;;;;;;;;12.67;12.67;28.30;38.00;;;;;;4970094;28;11578;-78
2022/05/22 01:00:28;;;;;;;;;14.33;14.33;28.00;38.70;;;;;;4960208;28;8846;-77
2022/05/22 01:05:43;;;;;;;;;14.67;14.67;27.80;40.60;;;;;;4919620;29;11465;-77
2022/05/22 01:08:10;;;;;;;;;13.00;13.00;27.80;40.00;;;;;;4929114;29;8782;-79
2022/05/22 01:10:44;;;;;;;;;9.67;9.67;27.90;40.80;;;;;;4938382;29;11470;-78
2022/05/22 01:13:13;;;;;;;;;10.00;10.00;27.90;40.40;;;;;;4938419;29;8805;-79
2022/05/22 01:15:38;;;;;;;;;13.00;13.00;27.80;41.60;;;;;;4938375;29;8818;-78
2022/05/22 01:18:04;;;;;;;;;13.00;13.00;27.70;43.80;;;;;;4938249;29;9397;-78
2022/05/22 01:20:30;;;;;;;;;12.33;12.33;27.80;44.10;;;;;;4938410;29;8786;-79
2022/05/22 01:22:56;;;;;;;;;15.33;15.33;27.60;43.00;;;;;;4938641;29;8856;-79
2022/05/22 01:25:22;;;;;;;;;13.00;13.00;27.50;43.70;;;;;;4938222;29;8801;-79
2022/05/22 01:27:48;;;;;;;;;11.33;11.33;27.50;43.50;;;;;;4938214;29;8994;-79
2022/05/22 01:30:14;;;;;;;;;12.00;12.00;27.60;42.60;;;;;;4938114;29;8786;-78
2022/05/22 01:32:43;;;;;;;;;13.67;13.67;27.60;44.00;;;;;;4937943;29;8770;-79
2022/05/22 01:35:11;;;;;;;;;11.00;11.00;27.60;45.00;;;;;;4938085;29;8830;-80
2022/05/22 01:37:37;;;;;;;;;12.00;12.00;27.50;45.60;;;;;;4945112;28;8797;-78
2022/05/22 01:40:04;;;;;;;;;12.00;12.00;27.50;45.10;;;;;;4978707;28;8852;-78
2022/05/22 01:42:30;;;;;;;;;11.00;11.00;27.40;46.10;;;;;;4978530;28;8773;-77
2022/05/22 01:44:56;;;;;;;;;13.00;13.00;27.40;45.30;;;;;;4978652;28;11566;-78
2022/05/22 01:47:21;;;;;;;;;8.00;8.00;27.50;44.60;;;;;;4960880;28;8772;-78
2022/05/22 01:49:47;;;;;;;;;11.33;11.33;27.30;44.50;;;;;;4959163;28;8795;-77
2022/05/22 01:52:13;;;;;;;;;12.00;12.00;27.20;44.60;;;;;;4958937;28;9477;-78
2022/05/22 01:54:38;;;;;;;;;12.00;12.00;27.30;44.70;;;;;;4958903;28;9418;-79
2022/05/22 01:57:04;;;;;;;;;13.00;13.00;27.20;45.00;;;;;;4958059;28;8838;-78
2022/05/22 01:59:30;;;;;;;;;11.00;11.00;27.20;44.60;;;;;;4959029;28;8791;-78
2022/05/22 02:01:56;;;;;;;;;12.00;12.00;27.10;44.30;;;;;;4958617;28;8776;-77
2022/05/22 02:04:22;;;;;;;;;12.33;12.33;27.00;44.20;;;;;;4959058;28;8772;-77
2022/05/22 02:09:31;;;;;;;;;10.33;10.33;27.00;44.20;;;;;;4959083;28;8788;-78
2022/05/22 02:11:57;;;;;;;;;12.00;12.00;27.00;44.20;;;;;;4959097;28;11526;-77
2022/05/22 02:14:23;;;;;;;;;11.67;11.67;26.90;44.50;;;;;;4958736;28;9467;-79
2022/05/22 02:16:49;;;;;;;;;11.00;11.00;26.60;45.20;;;;;;4958479;28;8834;-78
2022/05/22 02:19:14;;;;;;;;;11.67;11.67;26.70;45.30;;;;;;4958534;28;8784;-78
2022/05/22 02:21:40;;;;;;;;;11.00;11.00;26.80;45.70;;;;;;4958362;28;8796;-79
2022/05/22 02:24:06;;;;;;;;;10.33;10.33;26.90;45.40;;;;;;4958419;28;8781;-79
2022/05/22 02:26:32;;;;;;;;;12.00;12.00;26.90;44.80;;;;;;4958562;28;8910;-78
2022/05/22 02:28:57;;;;;;;;;14.33;14.33;27.00;44.60;;;;;;4958248;28;8800;-78
2022/05/22 02:31:23;;;;;;;;;15.33;15.33;26.90;45.20;;;;;;4958251;28;8799;-77
2022/05/22 02:33:49;;;;;;;;;13.00;13.00;26.90;45.10;;;;;;4958174;28;8828;-78
2022/05/22 02:36:15;;;;;;;;;12.67;12.67;26.80;45.40;;;;;;4957076;28;8828;-76
2022/05/22 02:38:41;;;;;;;;;11.00;11.00;26.60;45.60;;;;;;4962775;28;8811;-79
2022/05/22 02:41:11;;;;;;;;;13.00;13.00;26.50;46.10;;;;;;4975924;28;8949;-78
2022/05/22 02:43:37;;;;;;;;;12.33;12.33;26.60;46.00;;;;;;4958000;28;8808;-77
2022/05/22 02:46:09;;;;;;;;;6.00;6.00;26.80;45.90;;;;;;4958132;28;11596;-78
2022/05/22 02:48:34;;;;;;;;;11.00;11.00;26.90;45.50;;;;;;4958009;28;8872;-77
2022/05/22 02:51:00;;;;;;;;;8.67;8.67;26.80;45.10;;;;;;4957862;28;11633;-78
2022/05/22 02:53:26;;;;;;;;;12.33;12.33;26.80;46.30;;;;;;4957957;28;8779;-77
2022/05/22 02:55:52;;;;;;;;;11.00;11.00;26.60;45.80;;;;;;4957712;28;11564;-77
2022/05/22 02:58:18;;;;;;;;;13.00;13.00;26.70;45.90;;;;;;4957811;28;9385;-77
2022/05/22 03:00:44;;;;;;;;;11.00;11.00;26.70;46.20;;;;;;4957752;28;8783;-76
2022/05/22 03:03:09;;;;;;;;;10.33;10.33;26.60;46.60;;;;;;4972674;28;8798;-77
2022/05/22 03:08:22;;;;;;;;;12.33;12.33;26.60;46.10;;;;;;4968697;28;8778;-78
2022/05/22 03:10:48;;;;;;;;;8.33;8.33;26.70;46.30;;;;;;4976773;28;11526;-77
2022/05/22 03:13:14;;;;;;;;;11.00;11.00;26.50;45.90;;;;;;4976635;28;8766;-77
2022/05/22 03:15:40;;;;;;;;;10.00;10.00;26.60;46.00;;;;;;4976715;28;8813;-77
2022/05/22 03:18:07;;;;;;;;;9.00;9.00;26.70;46.20;;;;;;4976589;28;11529;-77
2022/05/22 03:20:33;;;;;;;;;11.67;11.67;26.50;47.00;;;;;;4976607;28;9475;-76
2022/05/22 03:22:59;;;;;;;;;11.33;11.33;26.30;47.30;;;;;;4976612;28;8790;-77
2022/05/22 03:25:25;;;;;;;;;13.00;13.00;26.10;48.40;;;;;;4976606;28;8762;-77
2022/05/22 03:27:51;;;;;;;;;9.33;8.00;26.00;48.80;;;;;;4976582;28;8800;-77
2022/05/22 03:30:17;;;;;;;;;12.33;12.33;26.10;48.50;;;;;;4976347;28;8912;-77
2022/05/22 03:32:43;;;;;;;;;11.33;11.33;26.30;48.20;;;;;;4976255;28;8860;-77
2022/05/22 03:35:09;;;;;;;;;10.33;10.33;26.30;48.40;;;;;;4976174;28;8821;-77
2022/05/22 03:37:35;;;;;;;;;10.33;10.33;26.40;48.40;;;;;;4976525;28;8778;-78
2022/05/22 03:40:01;;;;;;;;;9.33;9.33;26.50;47.50;;;;;;4976319;28;8785;-77
2022/05/22 03:42:27;;;;;;;;;12.00;12.00;26.40;46.90;;;;;;4976488;28;8820;-77
2022/05/22 03:44:53;;;;;;;;;11.67;11.67;26.40;46.40;;;;;;4976462;28;9455;-78
2022/05/22 03:47:19;;;;;;;;;10.00;10.00;26.50;46.20;;;;;;4976157;28;8785;-77
2022/05/22 03:49:45;;;;;;;;;7.33;7.33;26.60;45.60;;;;;;4976372;28;11544;-77
2022/05/22 03:52:11;;;;;;;;;7.00;7.00;26.70;45.40;;;;;;4976171;28;8790;-77
2022/05/22 03:54:37;;;;;;;;;10.00;10.00;26.90;44.60;;;;;;4976176;28;11523;-78
2022/05/22 03:57:03;;;;;;;;;9.00;9.00;26.90;44.60;;;;;;4975867;28;9432;-78
2022/05/22 03:59:30;;;;;;;;;8.67;8.67;26.90;45.20;;;;;;4975956;28;8790;-77
2022/05/22 04:01:56;;;;;;;;;10.00;10.00;26.90;44.30;;;;;;4975869;28;11562;-78
2022/05/22 04:04:22;;;;;;;;;10.00;10.00;27.00;44.20;;;;;;4975802;28;11574;-77
2022/05/22 04:06:47;;;;;;;;;10.00;10.00;26.90;44.50;;;;;;4975741;28;11704;-79
2022/05/22 04:09:13;;;;;;;;;9.00;9.00;26.90;44.70;;;;;;4975630;28;8892;-78
2022/05/22 04:11:40;;;;;;;;;10.67;10.67;26.90;45.00;;;;;;4976073;28;8797;-78
2022/05/22 04:14:07;;;;;;;;;9.00;9.00;26.90;45.20;;;;;;4975959;28;8821;-78
2022/05/22 04:16:33;;;;;;;;;13.33;13.33;26.70;46.20;;;;;;4975606;28;8821;-79
2022/05/22 04:18:59;;;;;;;;;10.00;10.00;26.90;46.50;;;;;;4975958;28;8765;-77
2022/05/22 04:21:24;;;;;;;;;12.33;12.33;27.00;46.40;;;;;;4975346;28;8766;-77
2022/05/22 04:26:34;;;;;;;;;11.67;11.67;27.00;47.00;;;;;;4975733;28;8746;-78
2022/05/22 04:29:00;;;;;;;;;13.00;13.00;27.00;46.90;;;;;;4975595;28;8796;-77
2022/05/22 04:31:26;;;;;;;;;14.00;14.00;26.80;47.10;;;;;;4975286;28;8797;-77
2022/05/22 04:33:52;;;;;;;;;15.00;15.00;26.80;47.70;;;;;;4975389;28;8832;-78
2022/05/22 04:36:18;;;;;;;;;11.33;11.33;26.60;47.30;;;;;;4975452;28;8839;-77
2022/05/22 04:38:43;;;;;;;;;18.67;18.67;26.60;48.30;;;;;;4975589;28;8809;-77
2022/05/22 04:41:09;;;;;;;;;14.33;14.33;26.60;48.20;;;;;;4975692;28;8777;-78
2022/05/22 04:43:35;;;;;;;;;14.00;14.00;26.70;48.30;;;;;;4975698;28;8822;-78
2022/05/22 04:46:04;;;;;;;;;12.67;12.67;26.70;48.20;;;;;;4975672;28;8880;-79
2022/05/22 04:48:30;;;;;;;;;10.67;10.67;26.80;48.30;;;;;;4975333;28;8813;-77
2022/05/22 04:50:56;;;;;;;;;12.67;12.67;26.80;47.80;;;;;;4975157;28;8798;-78
2022/05/22 04:53:24;;;;;;;;;15.67;15.67;26.90;48.10;;;;;;4990506;28;8785;-78
2022/05/22 04:55:51;;;;;;;;;14.00;14.00;27.10;47.80;;;;;;4975400;28;8797;-78
2022/05/22 04:58:18;;;;;;;;;15.00;15.00;27.10;47.80;;;;;;4975424;28;9764;-79
2022/05/22 05:00:43;;;;;;;;;12.00;12.00;26.90;47.20;;;;;;4975401;28;8762;-78
2022/05/22 05:03:09;;;;;;;;;12.00;12.00;26.40;48.30;;;;;;4975395;28;8789;-76
2022/05/22 05:05:35;;;;;;;;;14.67;14.67;26.20;49.40;;;;;;4976242;28;8782;-77
2022/05/22 05:08:01;;;;;;;;;18.00;18.00;25.90;50.60;;;;;;4975648;28;8773;-79
2022/05/22 05:10:27;;;;;;;;;13.33;13.33;26.10;50.20;;;;;;4975204;28;9471;-80
2022/05/22 05:12:53;;;;;;;;;18.33;18.33;26.30;50.60;;;;;;4966063;28;8798;-79
2022/05/22 05:15:20;;;;;;;;;16.33;16.33;26.40;49.50;;;;;;4970929;28;9569;-78
2022/05/22 05:17:48;;;;;;;;;17.67;17.67;26.40;49.90;;;;;;4956079;29;8776;-79
2022/05/22 05:20:16;;;;;;;;;15.33;15.33;26.60;50.00;;;;;;4955989;28;8800;-80
2022/05/22 05:22:43;;;;;;;;;13.67;13.67;26.50;50.20;;;;;;4956093;28;8800;-79
2022/05/22 05:25:10;;;;;;;;;16.33;16.33;26.30;49.80;;;;;;4955960;28;8822;-79
2022/05/22 05:27:36;;;;;;;;;14.33;14.33;26.60;50.00;;;;;;4955649;29;8792;-79
2022/05/22 05:30:02;;;;;;;;;15.00;15.00;26.50;49.70;;;;;;4956041;29;8787;-77
2022/05/22 05:32:28;;;;;;;;;15.33;15.33;26.60;49.90;;;;;;4957652;28;8773;-78
2022/05/22 05:35:03;;;;;;;;;14.33;14.33;26.70;49.70;;;;;;4959287;28;8835;-78
2022/05/22 05:37:29;;;;;;;;;17.33;17.33;26.60;50.00;;;;;;4978546;28;8817;-77
2022/05/22 05:39:55;;;;;;;;;14.00;14.00;26.50;50.20;;;;;;4978523;28;8808;-78
2022/05/22 05:42:23;;;;;;;;;14.33;14.33;26.40;50.20;;;;;;4978545;28;8904;-78
2022/05/22 05:44:49;;;;;;;;;15.33;15.33;26.60;50.00;;;;;;4978875;28;8920;-79
2022/05/22 05:47:14;;;;;;;;;17.33;17.33;26.80;49.10;;;;;;4978657;28;8958;-78
2022/05/22 05:49:41;;;;;;;;;17.33;17.33;26.90;49.00;;;;;;4978377;28;8827;-78
2022/05/22 05:52:07;;;;;;;;;15.00;15.00;27.00;48.90;;;;;;4978345;28;8792;-78
2022/05/22 05:54:33;;;;;;;;;14.33;14.33;26.80;49.00;;;;;;4978157;28;8805;-78
2022/05/22 05:56:59;;;;;;;;;16.00;16.00;26.90;49.10;;;;;;4978444;28;8936;-79
2022/05/22 05:59:28;;;;;;;;;14.33;14.33;26.50;49.60;;;;;;4965746;28;8906;-78
2022/05/22 06:01:54;;;;;;;;;13.00;13.00;26.80;49.90;;;;;;4970258;28;8834;-78
2022/05/22 06:04:20;;;;;;;;;15.33;15.33;26.80;49.90;;;;;;4964481;28;8777;-78
2022/05/22 06:06:46;;;;;;;;;14.67;14.67;26.90;49.80;;;;;;4978126;28;8899;-79
2022/05/22 06:09:12;;;;;;;;;12.00;12.00;27.00;49.60;;;;;;4976828;28;8774;-78
2022/05/22 06:11:38;;;;;;;;;13.00;13.00;27.10;48.70;;;;;;4978282;28;8812;-79
2022/05/22 06:14:04;;;;;;;;;13.33;13.33;27.10;48.70;;;;;;4977571;28;8833;-79
2022/05/22 06:16:30;;;;;;;;;13.33;13.33;27.10;48.20;;;;;;4972717;28;8820;-79
2022/05/22 06:18:55;;;;;;;;;13.00;13.00;27.10;48.50;;;;;;4968799;28;8885;-78
2022/05/22 06:21:22;;;;;;;;;11.00;11.00;27.20;48.40;;;;;;4957473;28;8870;-78
2022/05/22 06:23:49;;;;;;;;;12.33;12.33;27.10;48.30;;;;;;4958415;28;8776;-78
2022/05/22 06:26:20;;;;;;;;;11.67;11.67;27.40;47.60;;;;;;4962602;28;8808;-78
2022/05/22 06:28:46;;;;;;;;;13.00;13.00;26.80;48.00;;;;;;4971023;28;8804;-78
2022/05/22 06:31:13;;;;;;;;;12.00;12.00;26.80;48.10;;;;;;4975950;28;9467;-78
2022/05/22 06:33:39;;;;;;;;;14.00;14.00;26.40;48.40;;;;;;4975908;28;8802;-78
2022/05/22 06:36:13;;;;;;;;;13.00;13.00;26.30;49.40;;;;;;4967615;28;11664;-79
2022/05/22 06:41:25;;;;;;;;;10.00;10.00;26.40;49.30;;;;;;4967005;28;11493;-73
2022/05/22 06:43:51;;;;;;;;;10.33;10.33;25.80;50.70;;;;;;4971269;28;8809;-77
2022/05/22 06:46:30;;;;;;;;;11.00;11.00;25.70;50.90;;;;;;4973482;28;11639;-78
2022/05/22 06:48:57;;;;;;;;;14.67;14.67;25.10;52.50;;;;;;4970433;28;8773;-79
2022/05/22 06:51:22;;;;;;;;;16.33;16.33;25.00;52.80;;;;;;4975973;28;9401;-79
2022/05/22 06:53:48;;;;;;;;;10.67;10.67;25.20;52.60;;;;;;4976192;28;8777;-80
2022/05/22 06:56:14;;;;;;;;;12.67;12.67;25.20;52.30;;;;;;4975784;28;8825;-80
2022/05/22 06:58:40;;;;;;;;;12.67;12.67;25.20;52.10;;;;;;4975609;28;8766;-74
2022/05/22 07:01:05;;;;;;;;;12.00;12.00;25.40;51.70;;;;;;4973247;28;8799;-80
2022/05/22 07:03:31;;;;;;;;;13.00;13.00;25.60;51.10;;;;;;4974222;28;8770;-80
2022/05/22 07:05:57;;;;;;;;;12.00;12.00;26.00;50.50;;;;;;4974459;28;8793;-80
2022/05/22 07:08:22;;;;;;;;;13.67;13.67;26.30;50.10;;;;;;4969352;28;8879;-79
2022/05/22 07:13:33;;;;;;;;;15.33;15.33;26.00;49.60;;;;;;4969072;28;8802;-79
2022/05/22 07:15:59;;;;;;;;;14.00;14.00;25.80;50.40;;;;;;4964142;28;9478;-80
2022/05/22 07:18:25;;;;;;;;;15.67;15.67;25.80;50.10;;;;;;4970787;28;8893;-82
2022/05/22 07:20:51;;;;;;;;;18.67;18.67;25.70;50.00;;;;;;4986418;28;8903;-81
2022/05/22 07:23:17;;;;;;;;;14.00;14.00;25.80;50.60;;;;;;4975041;28;8901;-85
2022/05/22 07:25:42;;;;;;;;;17.67;17.67;25.60;51.90;;;;;;4975273;28;8960;-85
2022/05/22 07:28:08;;;;;;;;;21.00;21.00;25.60;52.00;;;;;;4972676;28;8788;-77
2022/05/22 07:30:34;;;;;;;;;24.67;24.67;25.90;51.00;;;;;;4973583;28;8793;-78
2022/05/22 07:33:00;;;;;;;;;17.67;17.67;26.20;50.40;;;;;;4971950;28;9441;-78
2022/05/22 07:35:25;;;;;;;;;17.00;17.00;26.20;48.60;;;;;;4975091;28;8798;-78
2022/05/22 07:37:52;;;;;;;;;14.00;14.00;26.40;47.20;;;;;;4972586;28;8771;-77
2022/05/22 07:40:19;;;;;;;;;7.00;7.00;26.30;47.90;;;;;;4964182;28;8776;-78
2022/05/22 07:42:44;;;;;;;;;12.33;12.33;26.40;47.50;;;;;;4961128;28;8776;-76
2022/05/22 07:45:12;;;;;;;;;10.33;10.33;26.60;46.30;;;;;;4957260;28;11661;-77
2022/05/22 07:47:38;;;;;;;;;12.33;12.33;26.40;45.00;;;;;;4967500;28;8790;-77
2022/05/22 07:50:16;;;;;;;;;12.00;12.00;26.40;44.80;;;;;;4973950;28;8915;-78
2022/05/22 07:52:43;;;;;;;;;12.00;12.00;26.70;44.30;;;;;;4960991;28;8805;-80
2022/05/22 07:55:14;;;;;;;;;10.67;10.67;26.40;44.40;;;;;;4981778;28;11653;-81
2022/05/22 07:57:43;;;;;;;;;11.33;11.33;26.40;44.60;;;;;;4968712;28;11561;-81
2022/05/22 08:00:10;;;;;;;;;14.33;14.33;26.70;45.50;;;;;;4975436;28;11666;-81
2022/05/22 08:02:36;;;;;;;;;8.00;8.00;26.60;45.10;;;;;;4976985;28;8793;-77
2022/05/22 08:05:03;;;;;;;;;10.67;10.67;26.60;44.50;;;;;;4980390;28;11554;-78
2022/05/22 08:07:29;;;;;;;;;11.00;11.00;26.60;43.70;;;;;;4974269;28;8770;-79
2022/05/22 08:09:54;;;;;;;;;9.33;9.33;26.50;43.60;;;;;;4976346;28;8805;-81
2022/05/22 08:12:21;;;;;;;;;11.67;11.67;26.60;43.00;;;;;;4976167;28;8800;-82
2022/05/22 08:14:48;;;;;;;;;8.67;8.67;26.90;43.20;;;;;;4970331;28;8832;-80
2022/05/22 08:17:15;;;;;;;;;10.00;10.00;26.60;42.90;;;;;;4967726;28;11613;-79
2022/05/22 08:19:41;;;;;;;;;9.67;9.67;26.90;44.10;;;;;;4970485;28;11593;-84
2022/05/22 08:22:07;;;;;;;;;8.67;8.67;26.90;42.50;;;;;;4956327;28;11611;-81
2022/05/22 08:24:33;;;;;;;;;11.00;11.00;27.20;42.00;;;;;;4956215;28;11511;-81
2022/05/22 08:27:00;;;;;;;;;10.67;10.67;27.20;41.90;;;;;;4956278;28;11585;-82
2022/05/22 08:29:26;;;;;;;;;11.67;11.67;27.00;41.90;;;;;;4956607;28;8800;-82
2022/05/22 08:31:51;;;;;;;;;9.00;9.00;27.10;42.30;;;;;;4956373;28;11630;-80
2022/05/22 08:34:17;;;;;;;;;8.67;8.67;27.20;40.80;;;;;;4966530;28;8910;-80
2022/05/22 08:36:45;;;;;;;;;9.67;9.67;27.10;39.40;;;;;;4956181;28;8926;-79
2022/05/22 08:39:12;;;;;;;;;7.67;7.67;27.10;39.90;;;;;;4973551;28;8871;-79
2022/05/22 08:41:43;;;;;;;;;10.00;10.00;26.70;40.70;;;;;;4972396;28;11518;-79
2022/05/22 08:44:12;;;;;;;;;10.00;10.00;27.00;40.80;;;;;;4963561;28;8906;-79
2022/05/22 08:47:01;;;;;;;;;9.00;9.00;27.20;41.40;;;;;;4962054;28;11636;-78
2022/05/22 08:49:52;;;;;;;;;8.00;8.00;27.50;40.70;;;;;;4973383;28;11589;-79
2022/05/22 08:52:30;;;;;;;;;11.67;11.67;27.20;39.70;;;;;;4967519;28;11607;-79
2022/05/22 08:55:20;;;;;;;;;7.67;7.67;27.40;39.80;;;;;;4958284;28;11541;-79
2022/05/22 09:00:44;;;;;;;;;6.00;6.00;27.50;39.10;;;;;;4964505;28;11514;-79
2022/05/22 09:03:28;;;;;;;;;10.67;10.67;27.70;38.50;;;;;;4964259;28;11490;-77
2022/05/22 09:05:59;;;;;;;;;11.00;11.00;28.10;38.60;;;;;;4955965;28;11696;-80
2022/05/22 09:08:44;;;;;;;;;9.67;9.67;28.10;38.70;;;;;;4970835;28;12189;-80
2022/05/22 09:11:16;;;;;;;;;8.00;8.00;28.10;39.00;;;;;;4970387;28;11518;-80
2022/05/22 09:14:02;;;;;;;;;1.00;1.00;28.00;37.20;;;;;;4967393;28;11529;-79
2022/05/22 09:16:36;;;;;;;;;8.00;8.00;28.30;36.50;;;;;;4972944;28;11632;-77
2022/05/22 09:19:26;;;;;;;;;8.25;8.25;28.50;37.00;;;;;;4971396;28;11522;-77
2022/05/22 09:22:10;;;;;;;;;8.00;8.00;28.40;37.00;;;;;;4963783;28;11522;-78
2022/05/22 09:25:20;;;;;;;;;10.00;10.00;29.20;35.60;;;;;;4968039;28;11586;-78
2022/05/22 09:28:11;;;;;;;;;8.25;8.25;29.10;34.80;;;;;;4919045;29;11474;-80
2022/05/22 09:31:02;;;;;;;;;8.00;8.00;29.30;34.50;;;;;;4956369;28;11632;-79
2022/05/22 09:33:57;;;;;;;;;7.25;7.25;29.60;32.60;;;;;;4959383;28;11643;-78
2022/05/22 09:36:38;;;;;;;;;6.00;6.00;29.80;30.70;;;;;;4980220;28;12207;-78
2022/05/22 09:39:10;;;;;;;;;9.00;9.00;29.80;29.20;;;;;;4967065;28;11495;-79
2022/05/22 09:42:04;;;;;;;;;8.25;8.25;29.80;32.00;;;;;;4966426;28;11463;-79
2022/05/22 09:45:08;;;;;;;;;9.00;9.00;29.70;33.10;;;;;;4976273;28;11507;-79
2022/05/22 09:47:40;;;;;;;;;10.25;10.25;29.60;32.50;;;;;;4975323;28;11527;-80
2022/05/22 09:50:31;;;;;;;;;5.50;5.50;29.30;33.10;;;;;;4972954;28;11628;-77
2022/05/22 09:53:05;;;;;;;;;7.50;7.50;29.40;31.80;;;;;;4974079;28;11510;-79
2022/05/22 09:55:45;;;;;;;;;9.50;9.50;29.60;31.90;;;;;;4958829;28;11649;-78
2022/05/22 09:58:32;;;;;;;;;7.50;7.50;29.90;32.70;;;;;;4958802;28;11527;-76
2022/05/22 10:01:22;;;;;;;;;9.00;9.00;30.10;31.90;;;;;;4968126;28;11508;-76
2022/05/22 10:03:51;;;;;;;;;8.50;8.50;29.80;33.00;;;;;;4976009;28;11661;-81
2022/05/22 10:06:55;;;;;;;;;9.50;9.50;29.70;31.70;;;;;;4974720;28;11533;-80
2022/05/22 10:09:40;;;;;;;;;6.25;6.25;29.60;31.30;;;;;;4971440;28;11498;-83
2022/05/22 10:12:27;;;;;;;;;6.00;6.00;30.10;30.50;;;;;;4970269;28;11520;-80
2022/05/22 10:15:25;;;;;;;;;7.00;7.00;30.30;30.10;;;;;;4978018;28;11523;-80
2022/05/22 10:18:15;;;;;;;;;10.33;10.33;30.30;29.70;;;;;;4977153;28;11491;-81
2022/05/22 10:21:01;;;;;;;;;9.00;9.00;30.80;29.70;;;;;;4977981;28;12274;-80
2022/05/22 10:23:46;;;;;;;;;6.25;6.25;31.10;28.90;;;;;;4977568;28;11527;-81
2022/05/22 10:26:39;;;;;;;;;8.00;8.00;31.20;28.20;;;;;;4977548;28;11514;-79
2022/05/22 10:29:25;;;;;;;;;7.25;7.25;31.40;29.00;;;;;;4977428;28;11489;-81
2022/05/22 10:32:10;;;;;;;;;9.00;9.00;31.90;28.00;;;;;;4975308;28;11495;-80
2022/05/22 10:34:52;;;;;;;;;8.00;8.00;31.60;28.10;;;;;;4976212;28;11590;-81
2022/05/22 10:37:43;;;;;;;;;8.25;8.25;32.00;28.00;;;;;;4972870;28;11486;-82
2022/05/22 10:40:14;;;;;;;;;8.00;8.00;31.90;27.50;;;;;;4970869;28;12115;-81
2022/05/22 10:42:45;;;;;;;;;8.00;8.00;32.30;27.70;;;;;;4970539;28;11500;-82
2022/05/22 10:45:21;;;;;;;;;6.75;6.75;32.60;27.00;;;;;;4974457;28;11546;-80
2022/05/22 10:47:48;;;;;;;;;6.00;6.00;32.50;26.30;;;;;;4969343;28;11508;-82
2022/05/22 10:50:26;;;;;;;;;7.75;7.75;32.20;26.00;;;;;;4973870;28;11497;-85
2022/05/22 10:52:53;;;;;;;;;7.00;7.00;32.50;26.20;;;;;;4974384;28;11710;-81
2022/05/22 10:55:45;;;;;;;;;8.00;8.00;32.60;25.60;;;;;;4974807;28;11488;-82
2022/05/22 10:58:39;;;;;;;;;9.75;9.75;32.40;25.50;;;;;;4966345;28;11522;-82
2022/05/22 11:01:14;;;;;;;;;8.00;8.00;32.90;25.20;;;;;;4957067;28;11602;-81
2022/05/22 11:03:40;;;;;;;;;7.00;7.00;33.20;25.60;;;;;;4957510;28;11543;-83
2022/05/22 11:06:20;;;;;;;;;7.75;7.75;32.30;24.20;;;;;;4957399;28;11603;-81
2022/05/22 11:08:53;;;;;;;;;6.00;6.00;32.80;25.00;;;;;;4958038;28;8780;-81
2022/05/22 11:11:27;;;;;;;;;7.50;7.50;33.20;25.40;;;;;;4965463;28;11610;-78
2022/05/22 11:14:04;;;;;;;;;4.00;4.00;33.30;24.90;;;;;;4965434;28;11514;-81
2022/05/22 11:16:31;;;;;;;;;6.75;6.75;32.90;25.20;;;;;;4968956;28;11514;-80
2022/05/22 11:19:16;;;;;;;;;9.00;9.00;32.50;25.90;;;;;;4957293;28;11520;-83
2022/05/22 11:22:07;;;;;;;;;7.00;7.00;33.50;25.70;;;;;;4988051;28;11615;-82
2022/05/22 11:25:22;;;;;;;;;8.00;8.00;34.30;24.20;;;;;;4976659;28;11578;-82
2022/05/22 11:28:07;;;;;;;;;9.00;9.00;34.80;24.80;;;;;;4976760;28;11567;-83
2022/05/22 11:30:44;;;;;;;;;7.00;7.00;34.90;23.70;;;;;;4976576;28;11509;-80
2022/05/22 11:33:48;;;;;;;;;9.00;9.00;35.10;23.60;;;;;;4962936;28;11545;-80
2022/05/22 11:36:19;;;;;;;;;7.75;7.75;35.30;22.80;;;;;;4956920;28;11531;-75
2022/05/22 11:38:55;;;;;;;;;7.00;7.00;35.30;23.10;;;;;;4971378;28;11533;-75
2022/05/22 11:41:43;;;;;;;;;8.00;8.00;35.80;23.10;;;;;;4976178;28;11508;-75
2022/05/22 11:44:12;;;;;;;;;5.00;5.00;35.10;22.90;;;;;;4976069;28;12232;-75
2022/05/22 11:47:18;;;;;;;;;4.00;4.00;35.50;24.10;;;;;;4976323;28;11520;-76
2022/05/22 11:50:05;;;;;;;;;5.75;5.75;41.20;21.80;;;;;;4976252;28;11472;-76
2022/05/22 11:53:21;;;;;;;;;4.25;4.25;47.40;18.10;;;;;;4972691;28;11474;-75
2022/05/22 11:55:58;;;;;;;;;6.25;6.25;53.00;15.40;;;;;;4954472;28;12150;-76
2022/05/22 11:58:48;;;;;;;;;5.00;5.00;55.70;12.50;;;;;;4973089;28;11521;-76
2022/05/22 12:01:23;;;;;;;;;4.00;4.00;53.70;12.50;;;;;;4976269;28;11655;-76
2022/05/22 12:04:03;;;;;;;;;4.75;4.75;53.00;11.60;;;;;;4975847;28;11530;-77
2022/05/22 12:06:44;;;;;;;;;5.00;5.00;48.60;12.50;;;;;;4976175;28;11479;-77
2022/05/22 12:09:32;;;;;;;;;7.25;7.25;43.70;14.90;;;;;;4974939;28;11521;-76
2022/05/22 12:12:04;;;;;;;;;6.00;6.00;40.80;16.60;;;;;;4968185;28;12184;-77
2022/05/22 12:14:59;;;;;;;;;5.00;5.00;38.80;18.40;;;;;;4956237;28;11721;-76
2022/05/22 12:17:49;;;;;;;;;5.25;5.25;37.00;19.30;;;;;;4955140;28;12288;-77
2022/05/22 12:20:48;;;;;;;;;8.00;8.00;36.10;21.10;;;;;;4956217;28;12124;-76
2022/05/22 12:23:24;;;;;;;;;5.00;5.00;35.10;21.90;;;;;;4972514;28;11517;-82
2022/05/22 12:26:00;;;;;;;;;5.50;5.50;35.50;21.30;;;;;;4971284;28;11659;-81
2022/05/22 12:28:43;;;;;;;;;4.50;4.50;35.60;21.20;;;;;;4955794;28;12171;-80
2022/05/22 12:31:24;;;;;;;;;6.00;6.00;35.10;21.90;;;;;;4956372;28;12309;-79
2022/05/22 12:33:51;;;;;;;;;5.00;5.00;35.90;21.50;;;;;;4955781;28;11593;-79
2022/05/22 12:36:26;;;;;;;;;7.00;7.00;36.50;21.20;;;;;;4956747;28;11672;-81
2022/05/22 12:39:05;;;;;;;;;6.25;6.25;36.60;20.10;;;;;;4971269;28;11502;-80
2022/05/22 12:41:54;;;;;;;;;6.25;6.25;35.90;20.70;;;;;;4972216;28;11492;-79
2022/05/22 12:44:21;;;;;;;;;6.25;6.25;35.70;21.50;;;;;;4967962;28;11530;-78
2022/05/22 12:46:49;;;;;;;;;6.75;6.75;35.70;21.60;;;;;;4975109;28;11499;-80
2022/05/22 12:49:23;;;;;;;;;6.00;6.00;35.90;21.70;;;;;;4975123;28;11483;-80
2022/05/22 12:52:26;;;;;;;;;4.25;4.25;35.90;21.60;;;;;;4975404;28;11486;-82
2022/05/22 12:55:21;;;;;;;;;5.00;5.00;36.00;21.40;;;;;;4975495;28;11510;-80
2022/05/22 12:57:56;;;;;;;;;4.25;4.25;35.80;21.50;;;;;;4975883;28;11459;-80
2022/05/22 13:00:33;;;;;;;;;6.00;6.00;36.00;22.30;;;;;;4975296;28;11495;-82
2022/05/22 13:03:14;;;;;;;;;5.75;5.75;36.10;21.00;;;;;;4991361;28;11564;-76
2022/05/22 13:05:45;;;;;;;;;5.00;5.00;35.70;20.50;;;;;;4975543;28;11485;-79
2022/05/22 13:08:36;;;;;;;;;6.75;6.75;35.60;21.60;;;;;;4975161;28;11468;-78
2022/05/22 13:11:15;;;;;;;;;5.25;5.25;35.20;21.80;;;;;;4975202;28;11550;-77
2022/05/22 13:13:52;;;;;;;;;5.50;5.50;34.90;22.50;;;;;;4974852;28;11572;-82
2022/05/22 13:16:27;;;;;;;;;6.00;6.00;35.60;22.00;;;;;;4990281;28;11568;-78
2022/05/22 13:18:54;;;;;;;;;4.75;4.75;35.70;21.50;;;;;;4990133;28;11489;-79
2022/05/22 13:21:38;;;;;;;;;4.75;4.75;35.20;21.60;;;;;;4975402;28;11512;-82
2022/05/22 13:24:26;;;;;;;;;8.25;8.25;35.40;22.30;;;;;;4975419;28;11523;-84